Time;durP1;ratioP1;P1;durP2;ratioP2;P2;SDS_P1;SDS_P2;PMS_P1;PMS_P2;Temp;Humidity;BMP_temperature;BMP_pressure;BME280_temperature;BME280_humidity;BME280_pressure;Samples;Min_cycle;Max_cycle;Signal;HPM_P1;HPM_P2
2022/10/01 00:03:08;;;;;;;1.02;0.93;;;;;;;7.47;90.42;100807.97;10453753;28;20041;-79
2022/10/01 00:08:13;;;;;;;1.70;1.30;;;;;;;7.60;90.49;100802.09;10464656;28;20049;-81
2022/10/01 00:13:15;;;;;;;2.67;1.00;;;;;;;7.63;90.41;100796.09;10477187;28;20419;-79
2022/10/01 00:18:17;;;;;;;2.10;0.90;;;;;;;7.61;89.85;100805.63;10479076;28;20049;-79
2022/10/01 00:23:19;;;;;;;1.80;1.35;;;;;;;7.66;89.62;100814.72;10478934;28;20506;-79
2022/10/01 00:28:21;;;;;;;0.75;0.75;;;;;;;7.61;90.39;100811.09;10454160;28;20239;-81
2022/10/01 00:33:24;;;;;;;4.60;0.90;;;;;;;7.57;90.02;100814.34;10475028;28;20057;-80
2022/10/01 00:38:28;;;;;;;0.95;0.82;;;;;;;7.65;90.52;100809.53;10480642;28;20041;-80
2022/10/01 00:43:32;;;;;;;2.35;1.00;;;;;;;7.71;89.80;100811.22;10425118;28;20055;-80
2022/10/01 00:48:38;;;;;;;1.92;0.90;;;;;;;7.74;90.48;100819.72;10474517;28;20049;-78
2022/10/01 00:53:42;;;;;;;0.70;0.70;;;;;;;7.83;90.13;100817.34;10432843;28;20037;-79
2022/10/01 00:58:44;;;;;;;2.90;0.65;;;;;;;7.91;90.21;100825.06;10496127;28;20392;-79
2022/10/01 01:03:47;;;;;;;1.40;0.93;;;;;;;7.90;89.80;100823.41;10486079;28;20422;-79
2022/10/01 01:08:53;;;;;;;0.75;0.70;;;;;;;7.85;90.35;100837.88;10435513;28;20040;-79
2022/10/01 01:14:02;;;;;;;0.70;0.70;;;;;;;7.89;90.06;100838.16;10521694;28;20121;-79
2022/10/01 01:19:50;;;;;;;1.08;0.73;;;;;;;7.91;89.60;100836.00;10526950;28;20040;-79
2022/10/01 01:25:08;;;;;;;1.35;0.80;;;;;;;7.86;89.97;100838.69;10488184;28;20554;-79
2022/10/01 01:30:13;;;;;;;4.38;0.90;;;;;;;7.75;90.33;100840.47;10484935;28;20430;-79
2022/10/01 01:35:32;;;;;;;1.55;0.93;;;;;;;7.74;90.16;100848.94;10446992;28;20037;-79
2022/10/01 01:40:36;;;;;;;0.80;0.80;;;;;;;7.73;90.27;100847.28;10460173;28;20045;-77
2022/10/01 01:45:39;;;;;;;0.80;0.70;;;;;;;7.76;90.93;100846.78;10438966;28;20037;-78
2022/10/01 01:50:53;;;;;;;1.10;0.82;;;;;;;7.81;90.61;100844.94;10481047;28;20037;-78
2022/10/01 01:55:56;;;;;;;3.42;0.70;;;;;;;7.81;91.13;100855.88;10472935;28;20619;-78
2022/10/01 02:00:58;;;;;;;1.52;0.90;;;;;;;7.88;91.34;100852.09;10458710;28;20056;-80
2022/10/01 02:06:34;;;;;;;1.25;1.00;;;;;;;7.89;90.82;100849.09;10498925;28;20056;-80
2022/10/01 02:11:45;;;;;;;2.05;0.88;;;;;;;8.00;91.12;100845.38;10525457;27;20542;-80
2022/10/01 02:16:56;;;;;;;2.08;0.98;;;;;;;8.09;91.35;100834.78;10484137;28;20033;-79
2022/10/01 02:22:05;;;;;;;1.40;0.95;;;;;;;8.20;90.67;100831.06;10450111;28;20053;-80
2022/10/01 02:27:20;;;;;;;2.28;1.13;;;;;;;8.08;91.23;100836.72;10466804;28;20056;-80
2022/10/01 02:32:22;;;;;;;1.23;0.90;;;;;;;8.08;90.63;100835.88;10466457;28;20499;-79
2022/10/01 02:37:26;;;;;;;1.25;0.90;;;;;;;8.12;91.05;100846.03;10483199;28;20040;-80
2022/10/01 02:42:29;;;;;;;2.53;1.40;;;;;;;8.18;91.32;100854.28;10514288;28;20040;-80
2022/10/01 02:47:35;;;;;;;2.25;1.40;;;;;;;8.15;91.49;100847.41;10482874;27;20379;-79
2022/10/01 02:52:52;;;;;;;2.45;1.40;;;;;;;8.19;91.16;100848.56;10464604;28;20060;-79
2022/10/01 02:57:55;;;;;;;1.70;1.30;;;;;;;8.23;91.65;100846.13;10447517;28;20056;-79
2022/10/01 03:02:57;;;;;;;1.77;1.23;;;;;;;8.18;91.00;100852.38;10452920;28;20053;-79
2022/10/01 03:08:00;;;;;;;4.43;1.35;;;;;;;8.16;91.29;100854.56;10448057;28;20037;-79
2022/10/01 03:13:04;;;;;;;2.58;1.55;;;;;;;8.14;91.34;100849.31;10423000;28;20523;-79
2022/10/01 03:18:06;;;;;;;1.75;1.40;;;;;;;8.15;91.94;100855.59;10492031;28;20033;-78
2022/10/01 03:23:08;;;;;;;1.60;1.35;;;;;;;8.09;92.02;100851.19;10495133;28;20057;-78
2022/10/01 03:28:11;;;;;;;2.45;1.60;;;;;;;8.12;91.59;100851.50;10473073;28;20043;-79
2022/10/01 03:33:14;;;;;;;2.00;1.33;;;;;;;8.13;91.80;100861.34;10466976;28;20076;-80
2022/10/01 03:38:16;;;;;;;2.13;1.60;;;;;;;8.09;91.39;100873.88;10481406;28;20041;-80
2022/10/01 03:43:18;;;;;;;3.75;1.80;;;;;;;8.12;91.92;100880.72;10520694;28;20043;-79
2022/10/01 03:48:22;;;;;;;2.45;1.67;;;;;;;8.15;91.52;100891.97;10489504;28;20043;-80
2022/10/01 03:53:26;;;;;;;4.18;2.03;;;;;;;8.13;91.88;100882.38;10479344;28;20037;-80
2022/10/01 03:58:28;;;;;;;2.40;1.88;;;;;;;8.21;91.37;100881.94;10481604;28;20395;-79
2022/10/01 04:03:30;;;;;;;2.47;1.92;;;;;;;8.16;91.83;100885.44;10463546;28;20204;-79
2022/10/01 04:08:33;;;;;;;3.25;1.73;;;;;;;8.12;91.81;100881.56;10480688;28;20041;-79
2022/10/01 04:13:36;;;;;;;3.22;2.45;;;;;;;8.03;92.18;100885.03;10466442;28;20703;-79
2022/10/01 04:18:38;;;;;;;2.60;1.80;;;;;;;7.97;92.00;100889.59;10445504;28;20503;-79
2022/10/01 04:23:40;;;;;;;3.30;2.30;;;;;;;7.92;92.13;100897.75;10455966;28;20053;-79
2022/10/01 04:28:45;;;;;;;4.88;2.30;;;;;;;8.03;92.68;100894.06;10449760;28;20071;-79
2022/10/01 04:33:47;;;;;;;3.08;2.35;;;;;;;8.02;92.18;100897.06;10478099;28;20037;-79
2022/10/01 04:38:53;;;;;;;2.22;2.00;;;;;;;8.07;92.64;100902.56;10480766;27;20045;-79
2022/10/01 04:43:58;;;;;;;2.50;1.88;;;;;;;8.03;92.17;100904.16;10474438;28;20064;-79
2022/10/01 04:49:00;;;;;;;4.07;2.15;;;;;;;7.99;92.46;100909.31;10475581;28;20045;-78
2022/10/01 04:54:02;;;;;;;3.03;2.13;;;;;;;8.02;91.74;100907.97;10475978;28;20530;-80
2022/10/01 04:59:04;;;;;;;4.22;2.45;;;;;;;8.12;92.28;100906.16;10477426;28;20051;-79
2022/10/01 05:04:07;;;;;;;7.55;2.60;;;;;;;8.43;92.21;100911.94;10458362;28;20056;-79
2022/10/01 05:09:09;;;;;;;4.00;2.88;;;;;;;8.77;91.10;100915.22;10482487;28;20041;-78
2022/10/01 05:14:15;;;;;;;5.72;2.83;;;;;;;9.41;90.83;100914.25;10476018;28;20561;-79
2022/10/01 05:19:17;;;;;;;4.57;2.60;;;;;;;10.07;87.86;100917.25;10474456;28;20410;-78
2022/10/01 05:24:19;;;;;;;5.53;2.60;;;;;;;10.56;85.03;100923.06;10476197;28;20057;-78
2022/10/01 05:29:21;;;;;;;8.57;2.97;;;;;;;11.10;81.01;100920.53;10481435;28;20623;-79
2022/10/01 05:34:24;;;;;;;6.15;3.28;;;;;;;11.40;78.94;100924.31;10479890;28;20041;-78
2022/10/01 05:39:26;;;;;;;5.22;3.15;;;;;;;11.62;77.02;100933.03;10481144;28;20045;-78
2022/10/01 05:44:28;;;;;;;4.47;3.00;;;;;;;11.71;75.95;100936.84;10485857;28;20038;-78
2022/10/01 05:49:30;;;;;;;6.00;3.50;;;;;;;11.88;75.61;100935.72;10444611;28;20060;-79
2022/10/01 05:54:33;;;;;;;4.47;3.13;;;;;;;12.19;74.46;100937.19;10481981;27;20041;-79
2022/10/01 05:59:35;;;;;;;5.75;3.03;;;;;;;12.70;71.82;100931.31;10480278;28;20037;-79
2022/10/01 06:04:37;;;;;;;5.50;2.92;;;;;;;12.75;71.10;100933.19;10481212;28;20048;-79
2022/10/01 06:09:39;;;;;;;4.80;2.75;;;;;;;12.85;70.22;100933.13;10480959;28;20037;-79
2022/10/01 06:14:41;;;;;;;3.10;2.35;;;;;;;12.64;69.58;100930.53;10481283;28;20044;-79
2022/10/01 06:19:50;;;;;;;3.93;2.77;;;;;;;12.78;69.47;100930.69;10483309;28;20060;-79
2022/10/01 06:24:52;;;;;;;4.50;2.45;;;;;;;13.32;68.04;100932.41;10484531;27;20045;-79
2022/10/01 06:29:55;;;;;;;4.90;2.75;;;;;;;13.99;66.07;100919.44;10480489;28;20234;-79
2022/10/01 06:34:57;;;;;;;4.82;3.00;;;;;;;14.37;64.38;100905.63;10479014;28;20411;-79
2022/10/01 06:40:00;;;;;;;4.30;2.55;;;;;;;14.57;63.37;100898.97;10479541;28;20408;-79
2022/10/01 06:45:06;;;;;;;3.17;2.15;;;;;;;14.72;63.53;100912.53;10477181;28;20123;-79
2022/10/01 06:50:09;;;;;;;4.10;2.67;;;;;;;14.74;61.73;100924.94;10473243;28;20041;-80
2022/10/01 06:55:37;;;;;;;4.55;2.80;;;;;;;14.70;61.40;100923.91;10470244;27;20033;-80
2022/10/01 07:00:43;;;;;;;3.37;2.30;;;;;;;14.81;61.54;100929.25;10474278;28;20076;-79
2022/10/01 07:05:49;;;;;;;4.57;2.95;;;;;;;15.21;60.70;100933.22;10462848;28;20056;-79
2022/10/01 07:10:52;;;;;;;3.15;2.58;;;;;;;15.23;60.73;100928.22;10465235;28;20442;-79
2022/10/01 07:15:54;;;;;;;5.90;2.97;;;;;;;15.35;60.08;100936.84;10471196;28;20049;-79
2022/10/01 07:20:56;;;;;;;4.20;2.65;;;;;;;15.67;59.17;100938.72;10479780;28;20045;-80
2022/10/01 07:25:59;;;;;;;2.90;2.60;;;;;;;15.50;59.11;100933.78;10476448;28;20048;-79
2022/10/01 07:31:27;;;;;;;3.20;2.33;;;;;;;15.14;58.66;100941.13;10490648;28;20044;-79
2022/10/01 07:36:33;;;;;;;3.53;2.43;;;;;;;14.76;60.25;100942.03;10493087;27;20037;-79
2022/10/01 07:41:35;;;;;;;3.05;2.35;;;;;;;14.82;60.41;100947.47;10447652;28;20044;-79
2022/10/01 07:46:38;;;;;;;3.35;2.30;;;;;;;14.67;60.89;100951.31;10480378;28;20048;-79
2022/10/01 07:51:42;;;;;;;3.63;2.70;;;;;;;15.35;59.42;100945.13;10501300;28;20044;-79
2022/10/01 07:56:45;;;;;;;3.60;2.75;;;;;;;15.49;58.86;100942.38;10455086;28;20111;-78
2022/10/01 08:02:17;;;;;;;4.28;2.70;;;;;;;15.82;58.14;100937.59;10457493;28;20049;-80
2022/10/01 08:07:20;;;;;;;3.63;2.75;;;;;;;16.50;57.00;100942.97;10439810;28;20041;-79
2022/10/01 08:12:23;;;;;;;5.43;3.00;;;;;;;16.85;55.91;100938.53;10460933;28;20448;-78
2022/10/01 08:17:25;;;;;;;3.03;2.45;;;;;;;17.32;54.19;100940.91;10443407;28;20067;-79
2022/10/01 08:22:27;;;;;;;3.97;2.72;;;;;;;17.57;53.30;100944.94;10461063;28;20045;-78
2022/10/01 08:27:29;;;;;;;3.40;2.53;;;;;;;17.45;53.81;100934.44;10484339;27;20076;-79
2022/10/01 08:32:32;;;;;;;4.68;2.25;;;;;;;17.35;53.69;100931.94;10423476;28;20060;-79
2022/10/01 08:37:34;;;;;;;4.57;2.25;;;;;;;17.32;53.15;100932.59;10455152;27;20040;-79
2022/10/01 08:42:58;;;;;;;2.80;2.08;;;;;;;17.01;54.05;100930.66;10470573;28;20071;-78
2022/10/01 08:48:17;;;;;;;3.38;2.03;;;;;;;16.61;54.26;100918.59;10474151;28;20439;-80
2022/10/01 08:53:41;;;;;;;3.65;2.03;;;;;;;15.93;54.78;100917.69;10453500;28;20055;-80
2022/10/01 08:58:46;;;;;;;3.80;2.20;;;;;;;15.10;56.58;100916.03;10458878;28;20050;-80
2022/10/01 09:03:49;;;;;;;2.28;1.75;;;;;;;14.61;58.06;100919.38;10461157;28;20037;-78
2022/10/01 09:08:54;;;;;;;4.05;1.90;;;;;;;14.13;59.27;100914.81;10469352;28;20041;-78
2022/10/01 09:14:09;;;;;;;2.80;1.80;;;;;;;13.66;60.59;100918.50;10473532;28;20503;-78
2022/10/01 09:19:35;;;;;;;2.58;1.80;;;;;;;13.42;61.29;100926.78;10463995;28;20034;-79
2022/10/01 09:24:45;;;;;;;2.35;1.65;;;;;;;13.25;61.92;100924.47;10426402;28;20045;-79
2022/10/01 09:29:50;;;;;;;3.20;1.80;;;;;;;13.18;63.31;100924.00;10435713;28;20041;-79
2022/10/01 09:34:54;;;;;;;4.13;2.08;;;;;;;13.10;63.45;100923.78;10575082;27;20046;-77
2022/10/01 09:40:28;;;;;;;3.95;2.20;;;;;;;12.91;63.66;100920.94;10485299;28;20041;-79
2022/10/01 09:45:30;;;;;;;3.28;1.92;;;;;;;12.95;64.26;100922.00;10487077;28;20057;-79
2022/10/01 09:50:55;;;;;;;3.65;1.92;;;;;;;12.84;63.96;100932.31;10495779;28;20048;-80
2022/10/01 09:56:04;;;;;;;2.90;2.00;;;;;;;12.75;64.95;100925.75;10448770;28;20056;-78
2022/10/01 10:01:20;;;;;;;4.68;2.45;;;;;;;12.71;64.99;100921.94;10464340;28;20033;-78
2022/10/01 10:06:26;;;;;;;3.45;2.30;;;;;;;12.59;65.55;100918.75;10480190;28;21298;-78
2022/10/01 10:11:31;;;;;;;3.33;2.60;;;;;;;12.49;66.42;100907.78;10461505;28;20760;-77
2022/10/01 10:16:34;;;;;;;4.32;2.10;;;;;;;12.33;66.46;100904.38;10425657;28;20456;-76
2022/10/01 10:21:36;;;;;;;2.78;1.90;;;;;;;12.35;66.85;100908.47;10464882;28;20088;-75
2022/10/01 10:26:39;;;;;;;3.35;1.80;;;;;;;12.30;66.20;100908.50;10528630;27;20052;-74
2022/10/01 10:31:43;;;;;;;3.95;1.92;;;;;;;12.35;66.33;100891.97;10451929;28;20783;-76
2022/10/01 10:36:46;;;;;;;2.20;1.88;;;;;;;12.30;66.63;100899.41;10478649;27;20044;-75
2022/10/01 10:41:49;;;;;;;3.05;1.77;;;;;;;12.22;66.65;100889.84;10443094;27;20490;-76
2022/10/01 10:46:52;;;;;;;3.30;2.05;;;;;;;12.21;66.97;100896.47;10463838;28;20045;-76
2022/10/01 10:51:57;;;;;;;3.33;1.83;;;;;;;12.31;66.63;100881.78;10472888;27;20076;-77
2022/10/01 10:57:15;;;;;;;4.03;1.70;;;;;;;12.42;66.14;100879.78;10472263;27;20082;-77
2022/10/01 11:02:17;;;;;;;1.75;1.30;;;;;;;12.52;65.48;100875.03;10465350;28;20041;-76
2022/10/01 11:07:23;;;;;;;3.22;1.70;;;;;;;12.47;65.77;100858.53;10476225;28;20092;-76
2022/10/01 11:12:55;;;;;;;3.17;2.00;;;;;;;12.52;65.30;100852.19;10452994;27;20048;-76
2022/10/01 11:18:12;;;;;;;3.38;2.00;;;;;;;12.56;65.61;100850.50;10489692;28;20423;-78
2022/10/01 11:23:44;;;;;;;1.77;1.40;;;;;;;12.25;63.87;100848.00;10460596;28;20056;-72
2022/10/01 11:29:04;;;;;;;1.42;1.00;;;;;;;12.16;63.77;100846.97;10468039;28;20056;-73
2022/10/01 11:34:23;;;;;;;1.45;0.93;;;;;;;12.05;62.46;100829.72;10465184;27;20529;-73
2022/10/01 11:39:27;;;;;;;2.65;1.70;;;;;;;12.08;63.81;100833.81;10484565;27;20049;-73
2022/10/01 11:44:32;;;;;;;1.63;1.33;;;;;;;12.08;64.24;100829.16;10478640;27;20060;-82
2022/10/01 11:49:45;;;;;;;1.70;1.23;;;;;;;12.15;63.57;100830.75;10473776;28;20045;-81
2022/10/01 11:58:49;;;;;;;1.40;1.02;;;;;;;12.19;62.46;100827.16;10490238;27;20043;-81
2022/10/01 12:00:21;;;;;;;2.15;1.00;;;;;;;12.14;62.11;100815.34;10473360;28;20049;-76
2022/10/01 12:05:27;;;;;;;1.20;0.98;;;;;;;12.22;62.41;100810.06;10472437;27;20119;-74
2022/10/01 12:10:37;;;;;;;2.90;1.83;;;;;;;12.25;62.70;100806.72;10460751;28;20052;-74
2022/10/01 12:16:00;;;;;;;3.30;1.70;;;;;;;12.35;62.50;100803.09;10502949;27;20048;-74
2022/10/01 12:21:07;;;;;;;4.47;2.83;;;;;;;12.38;62.59;100802.50;10429044;28;20148;-74
2022/10/01 12:26:26;;;;;;;11.43;4.70;;;;;;;12.25;64.28;100809.47;10446376;28;20041;-74
2022/10/01 12:32:01;;;;;;;8.40;4.53;;;;;;;12.06;65.81;100803.84;10459322;28;20044;-73
2022/10/01 12:37:11;;;;;;;9.50;5.82;;;;;;;11.93;66.70;100809.19;10468394;28;20043;-75
2022/10/01 12:42:13;;;;;;;8.10;5.30;;;;;;;11.74;68.16;100801.56;10440497;28;20105;-75
2022/10/01 12:47:36;;;;;;;10.80;5.72;;;;;;;11.65;68.89;100808.81;10487066;28;20047;-74
2022/10/01 12:53:15;;;;;;;10.20;5.45;;;;;;;11.59;69.50;100800.84;10508212;28;20045;-73
2022/10/01 12:58:32;;;;;;;9.90;5.47;;;;;;;11.51;69.89;100804.22;10457744;28;20496;-77
2022/10/01 13:03:56;;;;;;;6.57;4.15;;;;;;;11.31;70.38;100810.63;10414793;28;20410;-77
2022/10/01 13:09:34;;;;;;;6.68;4.40;;;;;;;11.14;70.00;100789.81;10482763;28;20041;-77
2022/10/01 13:14:37;;;;;;;5.80;3.92;;;;;;;11.02;70.63;100804.97;10480506;28;20049;-77
2022/10/01 13:19:46;;;;;;;4.60;3.97;;;;;;;10.90;71.27;100796.22;10509702;28;20049;-76
2022/10/01 13:24:59;;;;;;;7.10;3.88;;;;;;;10.83;71.53;100789.09;10465780;28;20053;-76
2022/10/01 13:30:12;;;;;;;4.88;3.78;;;;;;;10.82;71.54;100781.16;10479261;28;20399;-76
2022/10/01 13:35:26;;;;;;;5.32;3.22;;;;;;;10.76;71.93;100774.00;10476723;28;20177;-79
2022/10/01 13:40:31;;;;;;;6.65;3.55;;;;;;;10.74;71.48;100762.50;10473297;28;20068;-76
2022/10/01 13:45:36;;;;;;;7.95;3.15;;;;;;;10.65;72.29;100758.69;10465594;28;20041;-78
2022/10/01 13:50:40;;;;;;;6.50;3.30;;;;;;;10.70;72.33;100744.94;10484229;28;20044;-77
2022/10/01 13:55:44;;;;;;;8.57;3.63;;;;;;;10.62;71.43;100749.09;10455099;27;20042;-81
2022/10/01 14:00:48;;;;;;;3.90;3.08;;;;;;;10.73;72.24;100750.69;10463651;28;20048;-78
2022/10/01 14:05:56;;;;;;;9.05;3.97;;;;;;;10.65;71.63;100739.50;10516248;27;20053;-80
2022/10/01 14:16:36;;;;;;;5.28;3.00;;;;;;;10.61;72.21;100730.19;10479291;28;20128;-80
2022/10/01 14:21:38;;;;;;;;;;;;;;;10.67;72.67;100723.56;10509151;28;20419;-78
2022/10/01 14:26:56;;;;;;;5.15;3.03;;;;;;;10.65;72.17;100731.25;10443538;28;19925;-80
2022/10/01 14:31:58;;;;;;;;;;;;;;;10.56;73.29;100723.59;10429348;28;20037;-80
2022/10/01 14:37:00;;;;;;;5.88;3.13;;;;;;;10.57;72.93;100724.41;10443461;28;20320;-78
2022/10/01 14:42:11;;;;;;;7.85;3.67;;;;;;;10.56;72.87;100718.09;10441954;28;20034;-79
2022/10/01 14:47:19;;;;;;;7.70;3.10;;;;;;;10.50;73.36;100724.72;10458128;28;20046;-78
2022/10/01 14:52:26;;;;;;;7.95;2.83;;;;;;;10.52;73.35;100718.94;10428492;28;20045;-79
2022/10/01 14:57:30;;;;;;;4.72;2.58;;;;;;;10.36;73.70;100722.81;10463708;28;20041;-79
2022/10/01 15:02:32;;;;;;;6.78;3.15;;;;;;;10.35;73.23;100713.75;10464940;28;20071;-80
2022/10/01 15:07:35;;;;;;;5.05;3.70;;;;;;;10.29;73.92;100714.06;10474352;27;20517;-78
2022/10/01 15:12:40;;;;;;;4.43;3.20;;;;;;;10.19;74.59;100710.19;10425143;28;20049;-80
2022/10/01 15:17:44;;;;;;;8.52;3.55;;;;;;;10.15;74.47;100702.81;10440322;28;20041;-80
2022/10/01 15:22:48;;;;;;;8.77;3.83;;;;;;;9.97;75.62;100713.25;10422605;28;20574;-80
2022/10/01 15:27:52;;;;;;;6.53;4.00;;;;;;;9.78;76.07;100708.59;10441807;28;20053;-79
2022/10/01 15:32:55;;;;;;;9.88;3.30;;;;;;;9.64;76.38;100708.31;10425052;28;20529;-79
2022/10/01 15:37:59;;;;;;;4.57;3.20;;;;;;;9.50;76.94;100707.19;10455215;28;20507;-79
2022/10/01 15:43:31;;;;;;;8.77;3.53;;;;;;;9.44;77.28;100700.09;10424113;28;20052;-79
2022/10/01 15:48:33;;;;;;;6.43;3.60;;;;;;;9.31;78.97;100699.50;10405600;28;20045;-79
2022/10/01 15:53:36;;;;;;;6.88;3.88;;;;;;;9.32;78.99;100698.41;10421731;28;20057;-79
2022/10/01 15:58:50;;;;;;;6.75;4.35;;;;;;;9.22;79.84;100709.38;10422289;28;20045;-79
2022/10/01 16:04:04;;;;;;;8.77;4.15;;;;;;;9.14;79.74;100695.38;10421769;28;20061;-79
2022/10/01 16:09:19;;;;;;;7.47;4.13;;;;;;;9.07;80.53;100690.16;10404341;28;20065;-79
2022/10/01 16:14:42;;;;;;;10.95;4.40;;;;;;;8.90;80.44;100682.16;10421727;28;20247;-79
2022/10/01 16:19:47;;;;;;;13.23;3.70;;;;;;;8.89;81.22;100682.44;10421244;28;20058;-80
2022/10/01 16:25:18;;;;;;;7.45;4.43;;;;;;;8.81;81.58;100674.75;10446021;28;20045;-79
2022/10/01 16:30:25;;;;;;;10.38;4.95;;;;;;;8.69;81.39;100666.78;10481242;28;20571;-79
2022/10/01 16:35:34;;;;;;;9.98;4.78;;;;;;;8.59;81.48;100667.56;10461437;28;20045;-79
2022/10/01 16:40:39;;;;;;;7.38;4.05;;;;;;;8.52;82.37;100667.00;10479576;28;20045;-79
2022/10/01 16:45:42;;;;;;;8.85;4.72;;;;;;;8.35;82.32;100663.63;10462693;28;20060;-79
2022/10/01 16:50:45;;;;;;;8.85;4.80;;;;;;;8.33;82.79;100655.66;10462032;28;20044;-79
2022/10/01 16:55:48;;;;;;;8.50;4.68;;;;;;;8.25;82.75;100656.16;10478906;28;20044;-79
2022/10/01 17:00:51;;;;;;;8.48;4.82;;;;;;;8.38;83.73;100658.44;10479085;28;20033;-79
2022/10/01 17:05:53;;;;;;;8.02;4.90;;;;;;;8.47;83.58;100658.75;10427121;28;20056;-76
2022/10/01 17:10:58;;;;;;;7.38;5.10;;;;;;;8.41;84.42;100655.16;10474412;28;20033;-76
2022/10/01 17:16:01;;;;;;;9.20;5.63;;;;;;;8.49;84.24;100647.53;10478018;28;20391;-77
2022/10/01 17:21:03;;;;;;;10.20;5.85;;;;;;;8.51;84.31;100654.41;10479055;28;20045;-77
2022/10/01 17:26:07;;;;;;;13.05;6.20;;;;;;;8.41;84.08;100648.88;10439954;28;20561;-78
2022/10/01 17:31:10;;;;;;;7.70;5.57;;;;;;;8.23;83.98;100639.19;10441839;28;20028;-77
2022/10/01 17:36:12;;;;;;;11.07;6.00;;;;;;;8.25;83.96;100637.00;10485505;27;20056;-77
2022/10/01 17:41:14;;;;;;;8.90;6.10;;;;;;;8.23;84.98;100635.63;10427285;28;20056;-77
2022/10/01 17:46:17;;;;;;;10.73;6.13;;;;;;;8.15;84.68;100640.50;10425073;28;20415;-75
2022/10/01 17:51:19;;;;;;;10.13;6.53;;;;;;;7.94;85.15;100638.75;10445203;28;20507;-77
2022/10/01 17:56:21;;;;;;;10.18;7.25;;;;;;;7.81;84.83;100645.50;10426357;28;20037;-76
2022/10/01 18:01:24;;;;;;;12.70;7.70;;;;;;;7.66;85.32;100647.31;10442143;28;20427;-77
2022/10/01 18:06:27;;;;;;;12.23;7.95;;;;;;;7.52;85.20;100636.00;10442777;28;20037;-78
2022/10/01 18:11:35;;;;;;;11.95;7.75;;;;;;;7.36;85.16;100635.03;10425323;28;20053;-78
2022/10/01 18:16:37;;;;;;;9.15;6.45;;;;;;;7.15;86.05;100635.94;10424935;28;20045;-78
2022/10/01 18:21:39;;;;;;;9.07;6.25;;;;;;;7.04;86.65;100635.00;10442971;28;20419;-75
2022/10/01 18:26:41;;;;;;;9.73;6.78;;;;;;;7.01;87.38;100630.09;10442078;28;20053;-76
2022/10/01 18:31:44;;;;;;;9.93;6.57;;;;;;;6.97;87.24;100623.50;10441084;28;20069;-77
2022/10/01 18:36:54;;;;;;;11.13;8.18;;;;;;;7.13;87.18;100610.84;10424768;28;20048;-77
2022/10/01 18:41:56;;;;;;;13.30;8.70;;;;;;;7.01;88.18;100621.06;10425194;28;20046;-79
2022/10/01 18:46:59;;;;;;;13.05;7.63;;;;;;;6.84;88.49;100618.44;10441335;28;20053;-77
2022/10/01 18:52:28;;;;;;;11.93;8.20;;;;;;;6.88;88.59;100620.41;10423894;28;20034;-79
2022/10/01 18:57:49;;;;;;;13.00;7.50;;;;;;;6.86;88.54;100622.56;10510722;28;20065;-79
2022/10/01 19:03:09;;;;;;;14.15;8.75;;;;;;;6.95;88.86;100621.03;10448530;28;20060;-79
2022/10/01 19:08:27;;;;;;;13.43;8.50;;;;;;;6.75;89.22;100631.69;10442524;28;20053;-79
2022/10/01 19:13:59;;;;;;;11.48;7.30;;;;;;;6.52;89.15;100634.72;10442008;28;20053;-79
2022/10/01 19:19:07;;;;;;;14.63;8.85;;;;;;;6.37;89.33;100635.34;10424106;28;20053;-78
2022/10/01 19:24:31;;;;;;;12.43;7.40;;;;;;;6.31;88.80;100622.75;10441082;28;20496;-79
2022/10/01 19:29:46;;;;;;;14.68;6.80;;;;;;;6.50;89.89;100629.53;10441098;28;20057;-78
2022/10/01 19:34:58;;;;;;;11.35;7.40;;;;;;;6.58;90.01;100625.50;10439404;28;20049;-79
2022/10/01 19:40:24;;;;;;;14.07;8.27;;;;;;;6.52;89.72;100627.38;10465756;27;20048;-80
2022/10/01 19:45:45;;;;;;;14.15;7.60;;;;;;;6.63;89.90;100622.88;10459670;28;20029;-79
2022/10/01 19:50:54;;;;;;;13.95;7.47;;;;;;;6.69;90.07;100610.91;10462533;28;20052;-76
2022/10/01 19:56:00;;;;;;;11.98;6.78;;;;;;;6.60;90.43;100623.38;10488251;27;20045;-80
2022/10/01 20:01:03;;;;;;;11.85;7.47;;;;;;;6.52;90.15;100626.53;10517587;28;20048;-82
2022/10/01 20:06:13;;;;;;;11.55;7.03;;;;;;;6.47;90.26;100618.31;10479463;27;20052;-79
2022/10/01 20:11:29;;;;;;;10.38;6.57;;;;;;;6.54;90.65;100610.75;10449492;27;20045;-78
2022/10/01 20:16:42;;;;;;;11.05;7.18;;;;;;;6.36;90.57;100620.06;10438837;28;20040;-79
2022/10/01 20:21:55;;;;;;;10.48;6.70;;;;;;;6.35;90.47;100621.16;10461246;28;20048;-76
2022/10/01 20:27:10;;;;;;;12.40;7.35;;;;;;;6.33;90.74;100618.69;10446205;28;20052;-76
2022/10/01 20:32:32;;;;;;;11.65;7.30;;;;;;;6.41;90.48;100605.69;10454064;28;20045;-76
2022/10/01 20:37:40;;;;;;;10.75;7.05;;;;;;;6.53;90.42;100600.94;10478289;28;20077;-73
2022/10/01 20:42:46;;;;;;;13.95;7.75;;;;;;;6.47;90.88;100602.78;10441495;28;20042;-71
2022/10/01 20:47:53;;;;;;;11.55;7.32;;;;;;;6.54;91.26;100602.56;10476444;28;20049;-71
2022/10/01 20:53:02;;;;;;;11.67;7.20;;;;;;;6.44;91.25;100607.94;10478918;28;20037;-72
2022/10/01 20:58:24;;;;;;;12.98;7.53;;;;;;;6.49;91.08;100595.16;10485682;28;20041;-72
2022/10/01 21:03:43;;;;;;;11.52;7.45;;;;;;;6.39;90.69;100594.22;10427913;28;20049;-72
2022/10/01 21:09:19;;;;;;;13.82;8.23;;;;;;;6.42;90.52;100578.19;10443422;28;20049;-73
2022/10/01 21:14:32;;;;;;;15.75;8.90;;;;;;;6.38;90.87;100581.66;10461915;28;20043;-71
2022/10/01 21:19:55;;;;;;;13.98;7.75;;;;;;;6.21;91.25;100579.00;10467632;28;20048;-72
2022/10/01 21:25:16;;;;;;;14.77;8.23;;;;;;;6.07;90.47;100578.56;10480407;28;20061;-73
2022/10/01 21:30:19;;;;;;;19.70;8.85;;;;;;;6.02;91.08;100578.50;10487040;28;20056;-74
2022/10/01 21:35:35;;;;;;;16.73;9.60;;;;;;;5.98;90.61;100580.09;10438564;28;20052;-75
2022/10/01 21:40:59;;;;;;;19.02;9.13;;;;;;;5.82;90.94;100579.03;10441994;28;20491;-75
2022/10/01 21:46:30;;;;;;;18.63;9.40;;;;;;;5.90;91.02;100570.47;10470153;28;20044;-75
2022/10/01 21:51:41;;;;;;;20.15;9.60;;;;;;;6.12;91.82;100570.47;10444526;28;20052;-74
2022/10/01 21:56:44;;;;;;;18.55;9.75;;;;;;;6.39;92.03;100562.31;10442748;28;20612;-74
2022/10/01 22:02:07;;;;;;;16.65;8.95;;;;;;;6.58;90.80;100565.53;10465873;28;20033;-76
2022/10/01 22:07:16;;;;;;;17.92;8.80;;;;;;;6.50;90.69;100555.09;10485244;28;20040;-76
2022/10/01 22:12:19;;;;;;;15.57;7.75;;;;;;;6.20;90.77;100559.13;10510995;27;20044;-76
2022/10/01 22:17:25;;;;;;;18.70;8.35;;;;;;;6.08;90.78;100566.63;10508482;27;20422;-76
2022/10/01 22:22:30;;;;;;;16.17;8.45;;;;;;;5.92;90.45;100562.88;10452880;28;20037;-75
2022/10/01 22:27:48;;;;;;;16.50;7.95;;;;;;;5.87;90.39;100567.38;10469793;27;20037;-75
2022/10/01 22:33:05;;;;;;;15.52;7.70;;;;;;;6.14;90.69;100568.31;10476212;28;20042;-75
2022/10/01 22:38:16;;;;;;;15.32;7.55;;;;;;;6.22;89.81;100558.84;10460959;28;20411;-74
2022/10/01 22:43:18;;;;;;;13.65;7.32;;;;;;;6.20;90.52;100561.84;10491934;27;20037;-73
2022/10/01 22:48:45;;;;;;;16.15;7.65;;;;;;;6.20;89.94;100559.13;10475777;27;20540;-73
2022/10/01 22:54:08;;;;;;;15.10;7.80;;;;;;;6.09;89.73;100559.25;10478264;28;20033;-73
2022/10/01 22:59:20;;;;;;;17.20;8.48;;;;;;;6.05;89.92;100557.03;10474335;28;20048;-73
2022/10/01 23:04:31;;;;;;;14.90;7.90;;;;;;;6.00;89.78;100553.41;10456897;28;20033;-73
2022/10/01 23:09:52;;;;;;;13.65;7.53;;;;;;;5.99;90.12;100543.59;10440968;28;20551;-74
2022/10/01 23:15:00;;;;;;;15.25;7.85;;;;;;;6.03;89.20;100533.84;10446689;28;20181;-74
2022/10/01 23:20:17;;;;;;;14.10;7.70;;;;;;;6.10;89.25;100526.31;10463854;28;20056;-74
2022/10/01 23:25:46;;;;;;;16.75;7.78;;;;;;;6.12;90.15;100526.88;10460651;27;20041;-73
2022/10/01 23:30:59;;;;;;;14.82;7.82;;;;;;;6.16;89.66;100521.75;10462707;28;20037;-73
2022/10/01 23:36:31;;;;;;;17.05;8.05;;;;;;;6.37;88.92;100520.06;10464022;28;20045;-73
2022/10/01 23:42:01;;;;;;;20.55;8.55;;;;;;;6.37;89.18;100514.63;10453735;28;20045;-73
2022/10/01 23:47:12;;;;;;;16.42;7.40;;;;;;;6.41;89.23;100516.56;10471655;28;20049;-73
2022/10/01 23:52:33;;;;;;;11.90;6.95;;;;;;;6.53;88.56;100510.97;10438357;28;20037;-73